Terminal Aerodrome Forecast
Issued by NWS Grand Forks, ND

Home | Current Version | Previous Version | Graphics & Text | Print | Product List | Glossary On
Versions: 1 2 3 4 5 6 7 8 9 10 11 12 13 14 15 16 17 18
000
FTUS43 KFGF 271735
TAFFAR
TAF
KFAR 271735Z 2718/2818 22009KT P6SM SCT100 BKN150
     FM272100 20015KT P6SM BKN080
      TEMPO 2722/2801 3SM +TSRA BKN035CB
     FM280200 27012KT P6SM SCT100=

USA.gov is the U.S. government's official web portal to all federal, state and local government web resources and services.